createdAt,value
2019-04-20T00:00:02.716Z,5.40
2019-04-20T00:02:33.815Z,5.17
2019-04-20T00:05:03.430Z,5.43
2019-04-20T00:07:36.276Z,5.80
2019-04-20T00:10:13.071Z,4.70
2019-04-20T00:12:54.510Z,4.97
2019-04-20T00:15:07.408Z,5.10
2019-04-20T00:17:40.190Z,4.97
2019-04-20T00:20:14.281Z,5.77
2019-04-20T00:22:49.336Z,5.40
2019-04-20T00:25:24.127Z,5.37
2019-04-20T00:28:19.492Z,5.83
2019-04-20T00:30:53.397Z,5.90
2019-04-20T00:33:17.023Z,5.67
2019-04-20T00:35:34.230Z,5.60
2019-04-20T00:38:03.399Z,5.13
2019-04-20T00:40:32.705Z,4.87
2019-04-20T00:43:02.957Z,5.83
2019-04-20T00:45:35.240Z,5.10
2019-04-20T00:48:06.777Z,5.90
2019-04-20T00:50:48.856Z,5.67
2019-04-20T00:53:13.950Z,5.57
2019-04-20T00:55:34.121Z,5.20
2019-04-20T00:58:14.764Z,5.40
2019-04-20T01:01:02.729Z,5.43
2019-04-20T01:03:23.232Z,5.27
2019-04-20T01:05:58.529Z,4.87
2019-04-20T01:08:25.495Z,4.93
2019-04-20T01:10:57.670Z,6.20
2019-04-20T01:13:26.736Z,4.93
2019-04-20T01:16:03.278Z,5.83
2019-04-20T01:18:26.211Z,5.43
2019-04-20T01:20:59.101Z,5.30
2019-04-20T01:23:34.602Z,5.37
2019-04-20T01:26:04.067Z,4.70
2019-04-20T01:28:42.567Z,5.57
2019-04-20T01:31:09.810Z,4.57
2019-04-20T01:33:41.260Z,5.20
2019-04-20T01:36:21.576Z,5.40
2019-04-20T01:38:44.762Z,4.93
2019-04-20T01:41:01.386Z,5.30
2019-04-20T01:43:31.157Z,5.23
2019-04-20T01:46:07.658Z,5.67
2019-04-20T01:48:35.106Z,4.70
2019-04-20T01:51:09.288Z,5.13
2019-04-20T01:53:51.362Z,5.20
2019-04-20T01:56:18.140Z,4.60
2019-04-20T01:58:59.786Z,4.70
2019-04-20T02:01:23.054Z,4.40
2019-04-20T02:03:55.050Z,4.20
2019-04-20T02:06:25.676Z,5.13
2019-04-20T02:08:59.339Z,4.57
2019-04-20T02:11:29.638Z,4.40
2019-04-20T02:14:00.433Z,4.30
2019-04-20T02:16:33.594Z,4.40
2019-04-20T02:19:13.584Z,4.70
2019-04-20T02:21:42.403Z,4.90
2019-04-20T02:24:02.317Z,3.97
2019-04-20T02:26:28.221Z,4.73
2019-04-20T02:29:35.065Z,4.40
2019-04-20T02:34:47.693Z,4.50
2019-04-20T02:42:08.801Z,3.70
2019-04-20T02:44:41.935Z,4.20
2019-04-20T02:47:16.549Z,4.23
2019-04-20T02:52:28.664Z,3.77
2019-04-20T02:54:42.855Z,4.40
2019-04-20T02:57:12.517Z,4.93
2019-04-20T02:59:58.824Z,4.30
2019-04-20T03:02:01.397Z,4.37
2019-04-20T03:04:23.338Z,4.50
2019-04-20T03:06:59.429Z,4.40
2019-04-20T03:09:36.844Z,4.20
2019-04-20T03:12:10.627Z,3.80
2019-04-20T03:14:30.380Z,4.73
2019-04-20T03:17:09.900Z,3.97
2019-04-20T03:19:28.408Z,3.33
2019-04-20T03:22:09.105Z,4.63
2019-04-20T03:24:44.329Z,4.27
2019-04-20T03:27:07.793Z,4.07
2019-04-20T03:29:50.862Z,3.70
2019-04-20T03:35:17.421Z,4.07
2019-04-20T03:39:47.688Z,4.10
2019-04-20T03:42:05.260Z,3.67
2019-04-20T03:44:35.964Z,4.90
2019-04-20T03:47:08.793Z,3.60
2019-04-20T03:50:02.696Z,3.67
2019-04-20T03:52:27.763Z,3.93
2019-04-20T03:54:52.232Z,3.23
2019-04-20T03:57:34.397Z,3.47
2019-04-20T04:00:04.637Z,3.60
2019-04-20T04:02:54.585Z,3.80
2019-04-20T04:05:17.650Z,4.23
2019-04-20T04:07:40.428Z,4.03
2019-04-20T04:10:23.185Z,3.63
2019-04-20T04:13:14.814Z,4.03
2019-04-20T04:15:50.136Z,3.60
2019-04-20T04:18:25.445Z,4.30
2019-04-20T04:20:56.817Z,3.90
2019-04-20T04:23:33.881Z,3.47
2019-04-20T04:26:12.629Z,4.03
2019-04-20T04:28:37.375Z,3.40
2019-04-20T04:31:08.211Z,3.67
2019-04-20T04:33:53.351Z,3.70
2019-04-20T04:36:04.849Z,3.20
2019-04-20T04:38:42.377Z,4.23
2019-04-20T04:43:40.157Z,3.57
2019-04-20T04:45:55.529Z,4.27
2019-04-20T04:48:29.905Z,4.23
2019-04-20T04:51:01.260Z,3.90
2019-04-20T04:53:40.833Z,4.07
2019-04-20T04:56:03.147Z,3.90
2019-04-20T04:58:27.758Z,3.67
2019-04-20T05:01:04.532Z,3.80
2019-04-20T05:03:44.887Z,3.90
2019-04-20T05:06:20.986Z,3.80
2019-04-20T05:08:37.763Z,3.37
2019-04-20T05:11:02.600Z,3.77
2019-04-20T05:13:38.081Z,4.30
2019-04-20T05:16:16.869Z,3.50
2019-04-20T05:18:57.672Z,3.80
2019-04-20T05:21:25.356Z,4.10
2019-04-20T05:23:53.475Z,3.77
2019-04-20T05:26:36.113Z,3.90
2019-04-20T05:28:59.417Z,3.87
2019-04-20T05:31:23.572Z,3.77
2019-04-20T05:34:14.349Z,4.07
2019-04-20T05:36:42.751Z,4.20
2019-04-20T05:41:44.093Z,3.70
2019-04-20T05:44:11.266Z,3.97
2019-04-20T05:46:49.919Z,4.20
2019-04-20T05:49:18.930Z,4.50
2019-04-20T05:51:45.055Z,4.60
2019-04-20T05:54:19.360Z,4.60
2019-04-20T05:56:47.863Z,4.50
2019-04-20T05:59:16.172Z,4.17
2019-04-20T06:01:53.251Z,4.57
2019-04-20T06:04:30.054Z,5.37
2019-04-20T06:06:50.727Z,5.43
2019-04-20T06:09:22.638Z,4.57
2019-04-20T06:12:05.679Z,4.93
2019-04-20T06:14:25.675Z,5.03
2019-04-20T06:17:14.020Z,5.57
2019-04-20T06:19:42.196Z,5.43
2019-04-20T06:22:21.752Z,5.67
2019-04-20T06:24:57.137Z,5.03
2019-04-20T06:27:16.451Z,5.63
2019-04-20T06:29:45.831Z,5.13
2019-04-20T06:32:23.418Z,5.73
2019-04-20T06:34:46.538Z,5.30
2019-04-20T06:37:21.399Z,5.40
2019-04-20T06:40:22.151Z,5.37
2019-04-20T06:42:31.841Z,4.83
2019-04-20T06:44:44.061Z,5.83
2019-04-20T06:47:17.606Z,4.27
2019-04-20T06:49:48.674Z,4.97
2019-04-20T06:55:05.146Z,5.17
2019-04-20T06:57:43.484Z,5.43
2019-04-20T07:00:14.689Z,4.53
2019-04-20T07:02:41.206Z,5.63
2019-04-20T07:05:12.797Z,5.40
2019-04-20T07:07:45.482Z,4.93
2019-04-20T07:10:18.253Z,4.83
2019-04-20T07:12:39.903Z,5.00
2019-04-20T07:15:00.108Z,4.63
2019-04-20T07:17:55.006Z,4.70
2019-04-20T07:20:18.449Z,5.23
2019-04-20T07:22:55.619Z,4.80
2019-04-20T07:25:26.726Z,4.93
2019-04-20T07:27:53.704Z,5.03
2019-04-20T07:30:28.605Z,4.77
2019-04-20T07:32:59.725Z,4.80
2019-04-20T07:35:26.341Z,5.13
2019-04-20T07:40:24.395Z,5.13
2019-04-20T07:42:55.257Z,4.27
2019-04-20T07:45:29.538Z,4.30
2019-04-20T07:48:09.324Z,4.27
2019-04-20T07:50:29.622Z,3.93
2019-04-20T07:52:58.637Z,3.90
2019-04-20T07:55:47.796Z,4.17
2019-04-20T07:57:58.038Z,3.63
2019-04-20T08:00:48.620Z,3.70
2019-04-20T08:03:33.805Z,3.50
2019-04-20T08:05:52.668Z,3.73
2019-04-20T08:08:28.368Z,3.90
2019-04-20T08:11:05.916Z,3.70
2019-04-20T08:13:42.195Z,3.60
2019-04-20T08:16:06.594Z,3.70
2019-04-20T08:18:41.254Z,3.77
2019-04-20T08:21:13.011Z,3.57
2019-04-20T08:23:33.589Z,3.90
2019-04-20T08:25:58.403Z,3.93
2019-04-20T08:28:31.787Z,4.47
2019-04-20T08:31:09.099Z,4.20
2019-04-20T08:34:04.480Z,4.20
2019-04-20T08:36:31.553Z,4.37
2019-04-20T08:39:16.612Z,4.50
2019-04-20T08:41:25.119Z,5.70
2019-04-20T08:44:04.110Z,5.53
2019-04-20T08:46:34.513Z,5.10
2019-04-20T08:49:03.017Z,4.63
2019-04-20T08:51:33.250Z,5.53
2019-04-20T08:53:57.054Z,6.97
2019-04-20T08:56:25.917Z,5.23
2019-04-20T08:58:41.793Z,4.97
2019-04-20T09:01:14.355Z,4.90
2019-04-20T09:03:51.552Z,4.73
2019-04-20T09:06:30.981Z,5.17
2019-04-20T09:08:53.670Z,4.83
2019-04-20T09:11:31.079Z,5.50
2019-04-20T09:13:50.336Z,5.27
2019-04-20T09:16:15.341Z,4.53
2019-04-20T09:18:54.712Z,4.70
2019-04-20T09:21:27.128Z,4.43
2019-04-20T09:24:10.105Z,4.60
2019-04-20T09:26:37.391Z,4.50
2019-04-20T09:29:07.293Z,4.87
2019-04-20T09:31:36.884Z,4.50
2019-04-20T09:34:13.352Z,3.93
2019-04-20T09:36:38.609Z,3.57
2019-04-20T09:39:11.420Z,4.57
2019-04-20T09:42:03.783Z,4.70
2019-04-20T09:44:20.022Z,3.63
2019-04-20T09:46:54.212Z,4.27
2019-04-20T09:49:33.134Z,3.83
2019-04-20T09:52:06.565Z,4.20
2019-04-20T09:54:39.981Z,4.00
2019-04-20T09:57:09.371Z,3.90
2019-04-20T09:59:39.949Z,3.80
2019-04-20T10:02:04.158Z,3.97
2019-04-20T10:04:23.942Z,3.63
2019-04-20T10:06:53.006Z,3.57
2019-04-20T10:09:28.029Z,3.53
2019-04-20T10:11:53.195Z,3.90
2019-04-20T10:14:22.605Z,3.97
2019-04-20T10:16:51.877Z,3.70
2019-04-20T10:19:26.565Z,3.40
2019-04-20T10:21:52.749Z,3.60
2019-04-20T10:24:21.959Z,3.90
2019-04-20T10:26:50.879Z,4.17
2019-04-20T10:29:19.742Z,3.60
2019-04-20T10:31:54.592Z,3.97
2019-04-20T10:34:22.088Z,3.40
2019-04-20T10:36:51.493Z,3.40
2019-04-20T10:39:22.500Z,3.83
2019-04-20T10:41:56.222Z,3.60
2019-04-20T10:44:23.056Z,3.30
2019-04-20T10:46:53.272Z,3.87
2019-04-20T10:49:22.791Z,3.57
2019-04-20T10:51:51.845Z,3.93
2019-04-20T10:54:20.718Z,3.37
2019-04-20T10:56:49.772Z,3.50
2019-04-20T10:59:19.370Z,3.80
2019-04-20T11:01:49.656Z,2.93
2019-04-20T11:04:18.896Z,3.50
2019-04-20T11:06:47.827Z,3.87
2019-04-20T11:09:16.682Z,3.77
2019-04-20T11:11:46.138Z,3.67
2019-04-20T11:14:22.848Z,3.33
2019-04-20T11:16:46.683Z,3.57
2019-04-20T11:19:15.773Z,3.60
2019-04-20T11:21:46.192Z,3.60
2019-04-20T11:24:16.382Z,3.50
2019-04-20T11:26:46.814Z,3.70
2019-04-20T11:29:16.137Z,3.57
2019-04-20T11:31:50.598Z,3.77
2019-04-20T11:34:23.543Z,3.43
2019-04-20T11:36:46.274Z,3.33
2019-04-20T11:39:15.176Z,3.60
2019-04-20T11:41:45.338Z,3.03
2019-04-20T11:44:15.702Z,3.30
2019-04-20T11:46:44.974Z,3.43
2019-04-20T11:49:15.349Z,3.30
2019-04-20T11:51:45.583Z,3.17
2019-04-20T11:54:15.062Z,3.40
2019-04-20T11:56:47.177Z,3.10
2019-04-20T11:59:14.845Z,3.40
2019-04-20T12:01:51.931Z,3.20
2019-04-20T12:04:30.369Z,3.73
2019-04-20T12:06:48.705Z,3.33
2019-04-20T12:09:18.990Z,3.40
2019-04-20T12:12:04.123Z,3.80
2019-04-20T12:14:18.838Z,3.13
2019-04-20T12:16:47.897Z,3.60
2019-04-20T12:19:16.805Z,3.47
2019-04-20T12:21:45.764Z,3.10
2019-04-20T12:24:14.675Z,3.57
2019-04-20T12:26:44.756Z,4.07
2019-04-20T12:29:14.055Z,3.83
2019-04-20T12:31:51.089Z,4.00
2019-04-20T12:34:16.030Z,4.23
2019-04-20T12:36:45.133Z,3.90
2019-04-20T12:39:15.068Z,4.27
2019-04-20T12:41:50.430Z,5.13
2019-04-20T12:44:14.615Z,4.53
2019-04-20T12:46:43.753Z,4.50
2019-04-20T12:49:13.689Z,4.20
2019-04-20T12:51:50.610Z,4.30
2019-04-20T12:54:14.412Z,4.37
2019-04-20T12:56:44.676Z,4.20
2019-04-20T12:59:13.870Z,3.67
2019-04-20T13:01:43.747Z,4.20
2019-04-20T13:04:14.278Z,4.40
2019-04-20T13:06:44.761Z,4.03
2019-04-20T13:09:14.614Z,4.30
2019-04-20T13:12:05.313Z,4.23
2019-04-20T13:15:08.527Z,4.30
2019-04-20T13:17:37.975Z,4.30
2019-04-20T13:20:08.042Z,4.37
2019-04-20T13:22:37.092Z,4.77
2019-04-20T13:25:07.302Z,4.67
2019-04-20T13:27:36.715Z,4.87
2019-04-20T13:30:11.109Z,4.70
2019-04-20T13:32:41.431Z,4.70
2019-04-20T13:35:12.072Z,4.77
2019-04-20T13:37:42.326Z,4.10
2019-04-20T13:40:12.010Z,4.53
2019-04-20T13:42:41.474Z,4.20
2019-04-20T13:45:10.991Z,4.50
2019-04-20T13:47:41.040Z,4.63
2019-04-20T13:50:12.543Z,4.70
2019-04-20T13:52:41.470Z,4.40
2019-04-20T13:55:12.752Z,4.40
2019-04-20T13:57:47.139Z,4.90
2019-04-20T14:00:24.290Z,4.20
2019-04-20T14:03:04.823Z,4.43
2019-04-20T14:05:35.037Z,4.57
2019-04-20T14:08:07.460Z,4.20
2019-04-20T14:10:37.650Z,4.47
2019-04-20T14:13:12.098Z,4.30
2019-04-20T14:15:37.432Z,3.73
2019-04-20T14:18:06.968Z,3.63
2019-04-20T14:20:36.281Z,3.63
2019-04-20T14:23:05.329Z,4.17
2019-04-20T14:25:34.390Z,4.00
2019-04-20T14:28:03.201Z,4.23
2019-04-20T14:30:33.063Z,3.67
2019-04-20T14:33:03.029Z,3.63
2019-04-20T14:35:32.661Z,4.63
2019-04-20T14:38:01.717Z,3.80
2019-04-20T14:40:32.386Z,4.13
2019-04-20T14:43:01.742Z,4.07
2019-04-20T14:45:32.150Z,4.07
2019-04-20T14:48:01.712Z,3.80
2019-04-20T14:50:31.744Z,3.90
2019-04-20T14:53:01.851Z,3.87
2019-04-20T14:55:31.395Z,3.97
2019-04-20T14:58:03.620Z,4.63
2019-04-20T15:00:56.600Z,3.83
2019-04-20T15:03:28.346Z,3.60
2019-04-20T15:06:00.166Z,4.30
2019-04-20T15:08:30.356Z,3.80
2019-04-20T15:11:00.894Z,3.90
2019-04-20T15:13:30.815Z,3.67
2019-04-20T15:15:59.890Z,4.30
2019-04-20T15:18:31.425Z,3.77
2019-04-20T15:21:17.998Z,3.40
2019-04-20T15:23:47.915Z,3.70
2019-04-20T15:26:18.315Z,3.70
2019-04-20T15:28:48.327Z,4.13
2019-04-20T15:31:18.392Z,3.63
2019-04-20T15:33:48.748Z,3.87
2019-04-20T15:36:18.013Z,4.20
2019-04-20T15:38:47.257Z,4.10
2019-04-20T15:41:18.550Z,4.10
2019-04-20T15:43:48.992Z,3.73
2019-04-20T15:46:19.397Z,3.67
2019-04-20T15:48:48.479Z,3.53
2019-04-20T15:51:17.485Z,3.60
2019-04-20T15:53:47.360Z,3.70
2019-04-20T15:56:16.653Z,4.23
2019-04-20T15:58:46.136Z,3.80
2019-04-20T16:01:16.377Z,4.17
2019-04-20T16:03:47.627Z,4.03
2019-04-20T16:06:17.052Z,4.07
2019-04-20T16:08:48.248Z,4.13
2019-04-20T16:11:17.460Z,3.60
2019-04-20T16:13:50.504Z,3.70
2019-04-20T16:16:17.014Z,3.87
2019-04-20T16:18:46.628Z,4.17
2019-04-20T16:21:20.938Z,3.60
2019-04-20T16:23:50.786Z,3.13
2019-04-20T16:26:21.784Z,2.90
2019-04-20T16:28:50.901Z,3.57
2019-04-20T16:31:20.600Z,3.40
2019-04-20T16:33:50.583Z,3.00
2019-04-20T16:36:20.631Z,3.30
2019-04-20T16:38:50.995Z,3.37
2019-04-20T16:41:20.241Z,2.80
2019-04-20T16:43:49.991Z,3.40
2019-04-20T16:46:23.515Z,2.77
2019-04-20T16:48:50.226Z,2.60
2019-04-20T16:51:19.098Z,3.00
2019-04-20T16:53:48.018Z,3.33
2019-04-20T16:56:18.965Z,2.80
2019-04-20T16:58:53.132Z,3.03
2019-04-20T17:01:19.294Z,2.60
2019-04-20T17:03:54.572Z,2.90
2019-04-20T17:06:20.478Z,2.80
2019-04-20T17:08:49.567Z,2.63
2019-04-20T17:11:18.418Z,2.83
2019-04-20T17:13:51.204Z,2.60
2019-04-20T17:16:17.866Z,2.70
2019-04-20T17:18:49.963Z,3.00
2019-04-20T17:21:23.497Z,3.23
2019-04-20T17:23:49.620Z,2.87
2019-04-20T17:26:20.922Z,3.13
2019-04-20T17:28:55.026Z,2.67
2019-04-20T17:31:27.162Z,2.77
2019-04-20T17:34:04.668Z,3.00
2019-04-20T17:36:31.782Z,2.83
2019-04-20T17:39:03.727Z,2.90
2019-04-20T17:41:48.982Z,2.73
2019-04-20T17:44:17.299Z,2.70
2019-04-20T17:46:41.325Z,2.57
2019-04-20T17:49:18.187Z,2.50
2019-04-20T17:51:55.177Z,2.70
2019-04-20T17:54:22.391Z,3.20
2019-04-20T17:56:52.131Z,3.17
2019-04-20T17:59:22.300Z,2.73
2019-04-20T18:02:20.510Z,2.87
2019-04-20T18:05:09.935Z,3.00
2019-04-20T18:07:36.669Z,2.70
2019-04-20T18:10:02.997Z,2.60
2019-04-20T18:12:25.783Z,2.70
2019-04-20T18:14:58.075Z,3.40
2019-04-20T18:17:32.337Z,3.00
2019-04-20T18:19:54.993Z,2.77
2019-04-20T18:22:24.093Z,2.73
2019-04-20T18:25:16.380Z,3.17
2019-04-20T18:27:41.387Z,2.70
2019-04-20T18:30:10.670Z,2.70
2019-04-20T18:32:27.625Z,2.90
2019-04-20T18:35:02.623Z,3.17
2019-04-20T18:37:30.975Z,3.03
2019-04-20T18:40:06.213Z,2.47
2019-04-20T18:42:38.414Z,2.70
2019-04-20T18:45:20.064Z,2.67
2019-04-20T18:47:49.590Z,2.80
2019-04-20T18:50:11.811Z,3.00
2019-04-20T18:52:34.013Z,2.83
2019-04-20T18:55:08.428Z,2.83
2019-04-20T18:57:34.976Z,2.60
2019-04-20T19:00:06.375Z,3.10
2019-04-20T19:02:40.960Z,2.73
2019-04-20T19:05:08.692Z,2.70
2019-04-20T19:07:42.517Z,2.73
2019-04-20T19:10:19.555Z,2.93
2019-04-20T19:12:49.645Z,2.77
2019-04-20T19:15:38.567Z,2.87
2019-04-20T19:18:06.998Z,2.73
2019-04-20T19:20:26.907Z,3.00
2019-04-20T19:22:55.784Z,3.00
2019-04-20T19:25:28.132Z,2.50
2019-04-20T19:27:57.478Z,3.37
2019-04-20T19:30:35.319Z,3.47
2019-04-20T19:33:17.571Z,2.93
2019-04-20T19:35:40.857Z,4.80
2019-04-20T19:38:06.620Z,3.17
2019-04-20T19:40:42.186Z,4.40
2019-04-20T19:43:08.470Z,2.83
2019-04-20T19:46:05.517Z,3.27
2019-04-20T19:48:12.406Z,3.10
2019-04-20T19:50:56.052Z,3.20
2019-04-20T19:53:26.575Z,2.43
2019-04-20T19:55:47.791Z,3.00
2019-04-20T19:58:18.798Z,2.90
2019-04-20T20:00:42.860Z,2.80
2019-04-20T20:03:12.263Z,3.17
2019-04-20T20:05:45.036Z,3.10
2019-04-20T20:08:19.208Z,2.83
2019-04-20T20:10:45.506Z,3.10
2019-04-20T20:13:13.292Z,3.20
2019-04-20T20:15:43.718Z,3.07
2019-04-20T20:18:30.640Z,3.20
2019-04-20T20:21:00.611Z,3.13
2019-04-20T20:23:14.341Z,5.40
2019-04-20T20:25:47.564Z,4.60
2019-04-20T20:28:29.821Z,4.40
2019-04-20T20:30:56.983Z,3.40
2019-04-20T20:33:37.364Z,2.93
2019-04-20T20:35:53.637Z,3.23
2019-04-20T20:38:23.087Z,2.93
2019-04-20T20:40:57.820Z,3.00
2019-04-20T20:43:28.140Z,3.13
2019-04-20T20:46:01.089Z,3.10
2019-04-20T20:48:29.984Z,3.10
2019-04-20T20:51:07.716Z,2.80
2019-04-20T20:53:36.342Z,3.23
2019-04-20T20:56:05.341Z,2.37
2019-04-20T20:58:40.183Z,2.70
2019-04-20T21:01:01.111Z,2.80
2019-04-20T21:03:30.214Z,2.93
2019-04-20T21:05:53.641Z,2.60
2019-04-20T21:08:23.883Z,2.40
2019-04-20T21:10:52.952Z,2.77
2019-04-20T21:13:25.933Z,3.50
2019-04-20T21:16:01.316Z,2.90
2019-04-20T21:18:44.823Z,2.70
2019-04-20T21:21:06.518Z,2.83
2019-04-20T21:23:38.015Z,2.80
2019-04-20T21:26:17.005Z,3.10
2019-04-20T21:28:41.965Z,2.73
2019-04-20T21:31:16.285Z,2.87
2019-04-20T21:33:42.887Z,2.83
2019-04-20T21:36:13.600Z,3.03
2019-04-20T21:38:44.589Z,3.00
2019-04-20T21:41:16.088Z,2.67
2019-04-20T21:43:44.678Z,2.77
2019-04-20T21:46:16.532Z,3.10
2019-04-20T21:49:00.674Z,2.83
2019-04-20T21:51:30.538Z,2.80
2019-04-20T21:53:48.213Z,3.47
2019-04-20T21:56:17.695Z,3.00
2019-04-20T21:58:50.446Z,3.37
2019-04-20T22:01:27.259Z,5.57
2019-04-20T22:03:50.154Z,3.37
2019-04-20T22:06:20.298Z,3.07
2019-04-20T22:08:54.522Z,3.20
2019-04-20T22:11:20.057Z,2.93
2019-04-20T22:13:50.822Z,2.40
2019-04-20T22:16:21.919Z,3.33
2019-04-20T22:18:58.269Z,2.60
2019-04-20T22:21:27.789Z,2.60
2019-04-20T22:24:04.231Z,2.63
2019-04-20T22:26:30.701Z,2.87
2019-04-20T22:28:52.292Z,2.80
2019-04-20T22:31:22.257Z,2.70
2019-04-20T22:33:52.349Z,2.80
2019-04-20T22:36:24.825Z,2.90
2019-04-20T22:39:00.261Z,2.90
2019-04-20T22:41:30.166Z,3.10
2019-04-20T22:44:01.811Z,3.30
2019-04-20T22:46:33.740Z,2.80
2019-04-20T22:49:17.395Z,2.60
2019-04-20T22:51:44.014Z,2.83
2019-04-20T22:54:18.810Z,2.60
2019-04-20T22:56:47.023Z,2.73
2019-04-20T22:59:11.006Z,3.23
2019-04-20T23:01:41.867Z,3.03
2019-04-20T23:04:04.343Z,2.53
2019-04-20T23:06:38.632Z,3.00
2019-04-20T23:09:10.227Z,2.77
2019-04-20T23:11:37.609Z,2.90
2019-04-20T23:14:06.685Z,3.00
2019-04-20T23:16:43.286Z,3.10
2019-04-20T23:19:06.131Z,2.97
2019-04-20T23:21:34.986Z,2.87
2019-04-20T23:24:09.239Z,2.80
2019-04-20T23:26:39.773Z,2.93
2019-04-20T23:29:05.016Z,3.20
2019-04-20T23:31:34.622Z,2.60
2019-04-20T23:34:12.846Z,2.97
2019-04-20T23:36:39.055Z,2.63
2019-04-20T23:39:06.691Z,2.90
2019-04-20T23:41:35.752Z,3.10
2019-04-20T23:44:10.746Z,2.60
2019-04-20T23:46:39.115Z,2.90
2019-04-20T23:49:24.083Z,2.70
2019-04-20T23:52:11.855Z,3.10
2019-04-20T23:54:25.395Z,2.70
2019-04-20T23:56:50.351Z,3.07
2019-04-20T23:59:25.326Z,2.90
